Live Oak, California
Current Conditions -  °F | °C
As of 11:53 PM on Thursday 27 Nov 2014 (Local Time) from KOVE Reporting Station
Clear Clear  
Wind Chill:   Ceiling: Unl
Heat Index:   Visibility: 10mi
Dew Point:   Wind: 3mph
Humidity: 83%   Direction: 80°E
Pressure: 30.07"   Gusts: NA
Location:  39.28°N, 121.66°W
Report Text: KOVE 280753Z AUTO 08003KT 10SM CLR 09/07 A3007 RMK AO2 SLP184 T00940067 401720083
Loading
Personal Weather Stations






























Interactive Weather Map New forecast layout! Learn more

10-Day Weather Forecast

Advertisements
Track Severe Weather on mobile